sensor_id;sensor_type;location;lat;lon;timestamp;P1;durP1;ratioP1;P2;durP2;ratioP2
35188;SDS011;21762;54.480;18.556;2023-04-25T00:00:31;7.47;;;4.75;;
35188;SDS011;21762;54.480;18.556;2023-04-25T00:03:00;8.35;;;5.53;;
35188;SDS011;21762;54.480;18.556;2023-04-25T00:05:31;5.47;;;4.07;;
35188;SDS011;21762;54.480;18.556;2023-04-25T00:08:01;5.72;;;4.03;;
35188;SDS011;21762;54.480;18.556;2023-04-25T00:10:32;5.78;;;4.30;;
35188;SDS011;21762;54.480;18.556;2023-04-25T00:13:02;6.20;;;3.78;;
35188;SDS011;21762;54.480;18.556;2023-04-25T00:15:31;4.88;;;3.70;;
35188;SDS011;21762;54.480;18.556;2023-04-25T00:18:01;4.93;;;3.80;;
35188;SDS011;21762;54.480;18.556;2023-04-25T00:20:30;5.65;;;3.97;;
35188;SDS011;21762;54.480;18.556;2023-04-25T00:23:00;5.05;;;3.72;;
35188;SDS011;21762;54.480;18.556;2023-04-25T00:25:30;5.07;;;3.97;;
35188;SDS011;21762;54.480;18.556;2023-04-25T00:28:01;6.43;;;4.05;;
35188;SDS011;21762;54.480;18.556;2023-04-25T00:30:31;5.68;;;3.83;;
35188;SDS011;21762;54.480;18.556;2023-04-25T00:33:01;7.18;;;3.35;;
35188;SDS011;21762;54.480;18.556;2023-04-25T00:35:30;4.80;;;3.78;;
35188;SDS011;21762;54.480;18.556;2023-04-25T00:38:00;5.75;;;3.67;;
35188;SDS011;21762;54.480;18.556;2023-04-25T00:40:30;5.03;;;3.72;;
35188;SDS011;21762;54.480;18.556;2023-04-25T00:43:01;5.47;;;3.77;;
35188;SDS011;21762;54.480;18.556;2023-04-25T00:45:31;5.22;;;3.17;;
35188;SDS011;21762;54.480;18.556;2023-04-25T00:48:01;4.63;;;3.60;;
35188;SDS011;21762;54.480;18.556;2023-04-25T00:50:31;5.38;;;3.13;;
35188;SDS011;21762;54.480;18.556;2023-04-25T00:53:02;3.85;;;3.22;;
35188;SDS011;21762;54.480;18.556;2023-04-25T00:55:33;4.05;;;2.80;;
35188;SDS011;21762;54.480;18.556;2023-04-25T00:58:04;6.63;;;2.90;;
35188;SDS011;21762;54.480;18.556;2023-04-25T01:00:33;4.78;;;3.28;;
35188;SDS011;21762;54.480;18.556;2023-04-25T01:03:03;4.78;;;3.20;;
35188;SDS011;21762;54.480;18.556;2023-04-25T01:05:33;4.25;;;3.22;;
35188;SDS011;21762;54.480;18.556;2023-04-25T01:08:03;3.85;;;3.30;;
35188;SDS011;21762;54.480;18.556;2023-04-25T01:10:34;4.65;;;3.03;;
35188;SDS011;21762;54.480;18.556;2023-04-25T01:13:02;4.10;;;2.92;;
35188;SDS011;21762;54.480;18.556;2023-04-25T01:15:32;7.55;;;3.20;;
35188;SDS011;21762;54.480;18.556;2023-04-25T01:18:04;3.05;;;2.72;;
35188;SDS011;21762;54.480;18.556;2023-04-25T01:20:34;4.25;;;3.15;;
35188;SDS011;21762;54.480;18.556;2023-04-25T01:23:06;5.57;;;3.20;;
35188;SDS011;21762;54.480;18.556;2023-04-25T01:25:36;4.25;;;2.92;;
35188;SDS011;21762;54.480;18.556;2023-04-25T01:28:05;4.00;;;3.08;;
35188;SDS011;21762;54.480;18.556;2023-04-25T01:30:35;6.70;;;3.92;;
35188;SDS011;21762;54.480;18.556;2023-04-25T01:33:04;5.85;;;3.50;;
35188;SDS011;21762;54.480;18.556;2023-04-25T01:35:34;4.72;;;3.00;;
35188;SDS011;21762;54.480;18.556;2023-04-25T01:38:02;3.97;;;3.05;;
35188;SDS011;21762;54.480;18.556;2023-04-25T01:40:34;3.45;;;3.13;;
35188;SDS011;21762;54.480;18.556;2023-04-25T01:43:08;4.95;;;3.83;;
35188;SDS011;21762;54.480;18.556;2023-04-25T01:45:40;6.32;;;3.70;;
35188;SDS011;21762;54.480;18.556;2023-04-25T01:48:12;4.70;;;4.10;;
35188;SDS011;21762;54.480;18.556;2023-04-25T01:50:44;3.92;;;3.50;;
35188;SDS011;21762;54.480;18.556;2023-04-25T01:53:13;5.82;;;3.80;;
35188;SDS011;21762;54.480;18.556;2023-04-25T01:55:46;5.55;;;3.85;;
35188;SDS011;21762;54.480;18.556;2023-04-25T01:58:19;5.53;;;4.15;;
35188;SDS011;21762;54.480;18.556;2023-04-25T02:01:08;6.13;;;3.80;;
35188;SDS011;21762;54.480;18.556;2023-04-25T02:03:47;7.57;;;3.80;;
35188;SDS011;21762;54.480;18.556;2023-04-25T02:06:27;6.15;;;4.30;;
35188;SDS011;21762;54.480;18.556;2023-04-25T02:08:57;5.87;;;4.00;;
35188;SDS011;21762;54.480;18.556;2023-04-25T02:11:28;4.93;;;4.28;;
35188;SDS011;21762;54.480;18.556;2023-04-25T02:14:27;9.43;;;3.92;;
35188;SDS011;21762;54.480;18.556;2023-04-25T02:17:15;9.95;;;4.45;;
35188;SDS011;21762;54.480;18.556;2023-04-25T02:19:46;5.95;;;4.65;;
35188;SDS011;21762;54.480;18.556;2023-04-25T02:22:14;6.03;;;5.20;;
35188;SDS011;21762;54.480;18.556;2023-04-25T02:24:43;6.03;;;4.85;;
35188;SDS011;21762;54.480;18.556;2023-04-25T02:27:13;8.32;;;4.75;;
35188;SDS011;21762;54.480;18.556;2023-04-25T02:29:43;6.80;;;5.20;;
35188;SDS011;21762;54.480;18.556;2023-04-25T02:32:12;7.88;;;5.55;;
35188;SDS011;21762;54.480;18.556;2023-04-25T02:34:42;7.90;;;5.40;;
35188;SDS011;21762;54.480;18.556;2023-04-25T02:37:12;8.90;;;5.88;;
35188;SDS011;21762;54.480;18.556;2023-04-25T02:39:42;7.68;;;5.60;;
35188;SDS011;21762;54.480;18.556;2023-04-25T02:42:13;7.45;;;5.95;;
35188;SDS011;21762;54.480;18.556;2023-04-25T02:44:44;7.65;;;5.53;;
35188;SDS011;21762;54.480;18.556;2023-04-25T02:47:14;7.18;;;5.63;;
35188;SDS011;21762;54.480;18.556;2023-04-25T02:49:43;8.85;;;5.68;;
35188;SDS011;21762;54.480;18.556;2023-04-25T02:52:14;7.63;;;5.50;;
35188;SDS011;21762;54.480;18.556;2023-04-25T02:54:47;8.02;;;5.88;;
35188;SDS011;21762;54.480;18.556;2023-04-25T02:57:18;8.13;;;6.13;;
35188;SDS011;21762;54.480;18.556;2023-04-25T02:59:48;10.07;;;6.50;;
35188;SDS011;21762;54.480;18.556;2023-04-25T03:02:18;8.68;;;5.97;;
35188;SDS011;21762;54.480;18.556;2023-04-25T03:04:47;7.90;;;6.55;;
35188;SDS011;21762;54.480;18.556;2023-04-25T03:07:17;7.97;;;6.20;;
35188;SDS011;21762;54.480;18.556;2023-04-25T03:09:49;8.40;;;6.20;;
35188;SDS011;21762;54.480;18.556;2023-04-25T03:12:20;9.80;;;7.30;;
35188;SDS011;21762;54.480;18.556;2023-04-25T03:14:51;11.13;;;7.13;;
35188;SDS011;21762;54.480;18.556;2023-04-25T03:17:20;14.48;;;7.72;;
35188;SDS011;21762;54.480;18.556;2023-04-25T03:19:50;17.08;;;8.98;;
35188;SDS011;21762;54.480;18.556;2023-04-25T03:22:20;14.60;;;7.70;;
35188;SDS011;21762;54.480;18.556;2023-04-25T03:24:51;8.90;;;6.80;;
35188;SDS011;21762;54.480;18.556;2023-04-25T03:27:22;9.43;;;6.35;;
35188;SDS011;21762;54.480;18.556;2023-04-25T03:29:52;8.57;;;6.63;;
35188;SDS011;21762;54.480;18.556;2023-04-25T03:32:20;7.82;;;6.40;;
35188;SDS011;21762;54.480;18.556;2023-04-25T03:34:49;7.35;;;6.30;;
35188;SDS011;21762;54.480;18.556;2023-04-25T03:37:17;7.15;;;5.63;;
35188;SDS011;21762;54.480;18.556;2023-04-25T03:39:46;10.23;;;5.88;;
35188;SDS011;21762;54.480;18.556;2023-04-25T03:42:15;5.68;;;4.88;;
35188;SDS011;21762;54.480;18.556;2023-04-25T03:44:45;8.75;;;5.63;;
35188;SDS011;21762;54.480;18.556;2023-04-25T03:47:14;5.50;;;4.57;;
35188;SDS011;21762;54.480;18.556;2023-04-25T03:49:43;5.32;;;4.38;;
35188;SDS011;21762;54.480;18.556;2023-04-25T03:52:12;6.88;;;5.03;;
35188;SDS011;21762;54.480;18.556;2023-04-25T03:54:40;5.72;;;4.38;;
35188;SDS011;21762;54.480;18.556;2023-04-25T03:57:15;7.25;;;4.47;;
35188;SDS011;21762;54.480;18.556;2023-04-25T03:59:43;6.40;;;4.30;;
35188;SDS011;21762;54.480;18.556;2023-04-25T04:02:15;6.03;;;4.10;;
35188;SDS011;21762;54.480;18.556;2023-04-25T04:04:44;5.45;;;4.25;;
35188;SDS011;21762;54.480;18.556;2023-04-25T04:07:13;5.60;;;4.50;;
35188;SDS011;21762;54.480;18.556;2023-04-25T04:09:45;6.05;;;4.28;;
35188;SDS011;21762;54.480;18.556;2023-04-25T04:12:22;5.65;;;4.55;;
35188;SDS011;21762;54.480;18.556;2023-04-25T04:14:50;5.80;;;4.43;;
35188;SDS011;21762;54.480;18.556;2023-04-25T04:17:20;5.78;;;3.70;;
35188;SDS011;21762;54.480;18.556;2023-04-25T04:19:50;5.60;;;4.28;;
35188;SDS011;21762;54.480;18.556;2023-04-25T04:22:19;10.35;;;6.93;;
35188;SDS011;21762;54.480;18.556;2023-04-25T04:24:49;4.85;;;3.95;;
35188;SDS011;21762;54.480;18.556;2023-04-25T04:27:22;6.05;;;4.18;;
35188;SDS011;21762;54.480;18.556;2023-04-25T04:30:06;4.82;;;4.03;;
35188;SDS011;21762;54.480;18.556;2023-04-25T04:33:01;5.97;;;4.18;;
35188;SDS011;21762;54.480;18.556;2023-04-25T04:35:30;5.28;;;3.78;;
35188;SDS011;21762;54.480;18.556;2023-04-25T04:37:58;5.70;;;3.85;;
35188;SDS011;21762;54.480;18.556;2023-04-25T04:40:31;6.13;;;4.35;;
35188;SDS011;21762;54.480;18.556;2023-04-25T04:43:06;5.05;;;3.97;;
35188;SDS011;21762;54.480;18.556;2023-04-25T04:46:01;5.47;;;3.67;;
35188;SDS011;21762;54.480;18.556;2023-04-25T04:48:39;6.72;;;4.55;;
35188;SDS011;21762;54.480;18.556;2023-04-25T04:51:26;6.30;;;4.30;;
35188;SDS011;21762;54.480;18.556;2023-04-25T04:54:12;6.22;;;4.65;;
35188;SDS011;21762;54.480;18.556;2023-04-25T04:56:59;4.93;;;4.00;;
35188;SDS011;21762;54.480;18.556;2023-04-25T04:59:37;9.07;;;5.10;;
35188;SDS011;21762;54.480;18.556;2023-04-25T05:02:36;5.30;;;4.38;;
35188;SDS011;21762;54.480;18.556;2023-04-25T05:05:31;6.32;;;4.35;;
35188;SDS011;21762;54.480;18.556;2023-04-25T05:08:20;5.63;;;4.60;;
35188;SDS011;21762;54.480;18.556;2023-04-25T05:10:59;6.07;;;4.80;;
35188;SDS011;21762;54.480;18.556;2023-04-25T05:13:51;5.30;;;3.90;;
35188;SDS011;21762;54.480;18.556;2023-04-25T05:16:45;5.25;;;4.25;;
35188;SDS011;21762;54.480;18.556;2023-04-25T05:19:38;5.88;;;4.25;;
35188;SDS011;21762;54.480;18.556;2023-04-25T05:22:27;5.90;;;4.57;;
35188;SDS011;21762;54.480;18.556;2023-04-25T05:25:18;5.95;;;4.32;;
35188;SDS011;21762;54.480;18.556;2023-04-25T05:28:05;6.07;;;4.35;;
35188;SDS011;21762;54.480;18.556;2023-04-25T05:31:03;5.28;;;4.30;;
35188;SDS011;21762;54.480;18.556;2023-04-25T05:33:43;5.00;;;3.75;;
35188;SDS011;21762;54.480;18.556;2023-04-25T05:36:36;7.65;;;3.70;;
35188;SDS011;21762;54.480;18.556;2023-04-25T05:39:20;7.13;;;3.95;;
35188;SDS011;21762;54.480;18.556;2023-04-25T05:42:07;4.68;;;3.45;;
35188;SDS011;21762;54.480;18.556;2023-04-25T05:45:12;8.05;;;4.25;;
35188;SDS011;21762;54.480;18.556;2023-04-25T05:47:55;6.25;;;3.72;;
35188;SDS011;21762;54.480;18.556;2023-04-25T05:50:50;6.13;;;3.90;;
35188;SDS011;21762;54.480;18.556;2023-04-25T05:53:52;5.32;;;3.60;;
35188;SDS011;21762;54.480;18.556;2023-04-25T05:56:22;5.22;;;3.35;;
35188;SDS011;21762;54.480;18.556;2023-04-25T05:58:52;6.40;;;3.65;;
35188;SDS011;21762;54.480;18.556;2023-04-25T06:01:22;3.78;;;2.75;;
35188;SDS011;21762;54.480;18.556;2023-04-25T06:03:50;6.53;;;3.50;;
35188;SDS011;21762;54.480;18.556;2023-04-25T06:06:19;5.68;;;3.42;;
35188;SDS011;21762;54.480;18.556;2023-04-25T06:08:48;7.63;;;3.10;;
35188;SDS011;21762;54.480;18.556;2023-04-25T06:11:17;5.68;;;3.08;;
35188;SDS011;21762;54.480;18.556;2023-04-25T06:13:47;6.78;;;3.20;;
35188;SDS011;21762;54.480;18.556;2023-04-25T06:16:16;5.22;;;3.38;;
35188;SDS011;21762;54.480;18.556;2023-04-25T06:18:45;4.80;;;2.95;;
35188;SDS011;21762;54.480;18.556;2023-04-25T06:21:14;6.22;;;2.72;;
35188;SDS011;21762;54.480;18.556;2023-04-25T06:23:43;6.80;;;2.70;;
35188;SDS011;21762;54.480;18.556;2023-04-25T06:26:18;5.63;;;2.85;;
35188;SDS011;21762;54.480;18.556;2023-04-25T06:28:49;4.45;;;2.88;;
35188;SDS011;21762;54.480;18.556;2023-04-25T06:31:18;3.97;;;2.75;;
35188;SDS011;21762;54.480;18.556;2023-04-25T06:33:47;7.72;;;3.70;;
35188;SDS011;21762;54.480;18.556;2023-04-25T06:36:16;7.35;;;3.80;;
35188;SDS011;21762;54.480;18.556;2023-04-25T06:38:47;7.88;;;3.95;;
35188;SDS011;21762;54.480;18.556;2023-04-25T06:41:16;5.75;;;3.35;;
35188;SDS011;21762;54.480;18.556;2023-04-25T06:43:44;5.40;;;3.30;;
35188;SDS011;21762;54.480;18.556;2023-04-25T06:46:25;3.88;;;2.78;;
35188;SDS011;21762;54.480;18.556;2023-04-25T06:48:56;4.53;;;2.95;;
35188;SDS011;21762;54.480;18.556;2023-04-25T06:51:25;5.78;;;3.10;;
35188;SDS011;21762;54.480;18.556;2023-04-25T06:53:56;5.18;;;2.95;;
35188;SDS011;21762;54.480;18.556;2023-04-25T06:56:34;9.15;;;3.78;;
35188;SDS011;21762;54.480;18.556;2023-04-25T06:59:13;4.13;;;2.85;;
35188;SDS011;21762;54.480;18.556;2023-04-25T07:01:45;7.78;;;3.20;;
35188;SDS011;21762;54.480;18.556;2023-04-25T07:04:17;4.30;;;2.95;;
35188;SDS011;21762;54.480;18.556;2023-04-25T07:06:52;5.25;;;3.20;;
35188;SDS011;21762;54.480;18.556;2023-04-25T07:09:28;4.10;;;3.20;;
35188;SDS011;21762;54.480;18.556;2023-04-25T07:12:00;5.82;;;3.22;;
35188;SDS011;21762;54.480;18.556;2023-04-25T07:14:29;3.67;;;2.35;;
35188;SDS011;21762;54.480;18.556;2023-04-25T07:17:00;5.55;;;3.53;;
35188;SDS011;21762;54.480;18.556;2023-04-25T07:19:31;3.28;;;2.55;;
35188;SDS011;21762;54.480;18.556;2023-04-25T07:22:01;2.97;;;2.25;;
35188;SDS011;21762;54.480;18.556;2023-04-25T07:24:31;5.40;;;2.45;;
35188;SDS011;21762;54.480;18.556;2023-04-25T07:27:00;5.25;;;2.60;;
35188;SDS011;21762;54.480;18.556;2023-04-25T07:30:01;2.97;;;2.33;;
35188;SDS011;21762;54.480;18.556;2023-04-25T07:32:32;2.83;;;2.42;;
35188;SDS011;21762;54.480;18.556;2023-04-25T07:35:01;3.08;;;1.92;;
35188;SDS011;21762;54.480;18.556;2023-04-25T07:37:31;2.63;;;2.22;;
35188;SDS011;21762;54.480;18.556;2023-04-25T07:40:09;3.95;;;2.53;;
35188;SDS011;21762;54.480;18.556;2023-04-25T07:42:44;3.95;;;2.65;;
35188;SDS011;21762;54.480;18.556;2023-04-25T07:45:22;5.65;;;2.65;;
35188;SDS011;21762;54.480;18.556;2023-04-25T07:47:54;4.68;;;2.60;;
35188;SDS011;21762;54.480;18.556;2023-04-25T07:50:23;3.97;;;2.30;;
35188;SDS011;21762;54.480;18.556;2023-04-25T07:52:52;5.55;;;2.60;;
35188;SDS011;21762;54.480;18.556;2023-04-25T07:55:32;4.25;;;2.35;;
35188;SDS011;21762;54.480;18.556;2023-04-25T07:58:13;3.45;;;2.28;;
35188;SDS011;21762;54.480;18.556;2023-04-25T08:03:40;3.97;;;1.75;;
35188;SDS011;21762;54.480;18.556;2023-04-25T08:06:21;3.25;;;2.08;;
35188;SDS011;21762;54.480;18.556;2023-04-25T08:09:01;6.32;;;2.08;;
35188;SDS011;21762;54.480;18.556;2023-04-25T08:11:37;4.40;;;1.90;;
35188;SDS011;21762;54.480;18.556;2023-04-25T08:14:08;7.72;;;2.10;;
35188;SDS011;21762;54.480;18.556;2023-04-25T08:16:38;3.40;;;1.90;;
35188;SDS011;21762;54.480;18.556;2023-04-25T08:19:09;8.63;;;1.80;;
35188;SDS011;21762;54.480;18.556;2023-04-25T08:21:38;4.25;;;2.22;;
35188;SDS011;21762;54.480;18.556;2023-04-25T08:24:11;2.65;;;1.88;;
35188;SDS011;21762;54.480;18.556;2023-04-25T08:26:40;2.08;;;1.50;;
35188;SDS011;21762;54.480;18.556;2023-04-25T08:29:13;3.25;;;1.80;;
35188;SDS011;21762;54.480;18.556;2023-04-25T08:31:42;2.03;;;1.45;;
35188;SDS011;21762;54.480;18.556;2023-04-25T08:34:14;3.58;;;1.83;;
35188;SDS011;21762;54.480;18.556;2023-04-25T08:36:46;2.35;;;1.42;;
35188;SDS011;21762;54.480;18.556;2023-04-25T08:39:47;2.35;;;1.10;;
35188;SDS011;21762;54.480;18.556;2023-04-25T08:42:24;2.95;;;1.58;;
35188;SDS011;21762;54.480;18.556;2023-04-25T08:44:56;3.25;;;1.40;;
35188;SDS011;21762;54.480;18.556;2023-04-25T08:47:31;2.90;;;1.77;;
35188;SDS011;21762;54.480;18.556;2023-04-25T08:50:04;2.95;;;1.83;;
35188;SDS011;21762;54.480;18.556;2023-04-25T08:55:06;2.83;;;1.83;;
35188;SDS011;21762;54.480;18.556;2023-04-25T08:57:39;4.78;;;2.35;;
35188;SDS011;21762;54.480;18.556;2023-04-25T09:00:11;2.83;;;1.75;;
35188;SDS011;21762;54.480;18.556;2023-04-25T09:02:44;2.67;;;1.90;;
35188;SDS011;21762;54.480;18.556;2023-04-25T09:05:15;3.70;;;1.70;;
35188;SDS011;21762;54.480;18.556;2023-04-25T09:07:47;2.28;;;1.45;;
35188;SDS011;21762;54.480;18.556;2023-04-25T09:10:17;3.35;;;1.67;;
35188;SDS011;21762;54.480;18.556;2023-04-25T09:13:01;3.33;;;1.60;;
35188;SDS011;21762;54.480;18.556;2023-04-25T09:15:33;1.42;;;1.20;;
35188;SDS011;21762;54.480;18.556;2023-04-25T09:18:48;2.35;;;1.60;;
35188;SDS011;21762;54.480;18.556;2023-04-25T09:21:21;3.42;;;1.10;;
35188;SDS011;21762;54.480;18.556;2023-04-25T09:23:51;1.23;;;0.90;;
35188;SDS011;21762;54.480;18.556;2023-04-25T09:26:20;1.88;;;1.40;;
35188;SDS011;21762;54.480;18.556;2023-04-25T09:28:50;2.58;;;1.10;;
35188;SDS011;21762;54.480;18.556;2023-04-25T09:31:36;3.00;;;1.25;;
35188;SDS011;21762;54.480;18.556;2023-04-25T09:34:07;2.77;;;1.40;;
35188;SDS011;21762;54.480;18.556;2023-04-25T09:36:44;5.55;;;1.30;;
35188;SDS011;21762;54.480;18.556;2023-04-25T09:39:17;3.55;;;1.58;;
35188;SDS011;21762;54.480;18.556;2023-04-25T09:41:59;6.15;;;1.83;;
35188;SDS011;21762;54.480;18.556;2023-04-25T09:44:28;4.82;;;1.75;;
35188;SDS011;21762;54.480;18.556;2023-04-25T09:46:57;4.07;;;1.40;;
35188;SDS011;21762;54.480;18.556;2023-04-25T09:49:28;3.80;;;1.00;;
35188;SDS011;21762;54.480;18.556;2023-04-25T09:52:13;1.50;;;0.98;;
35188;SDS011;21762;54.480;18.556;2023-04-25T09:54:52;2.10;;;0.90;;
35188;SDS011;21762;54.480;18.556;2023-04-25T09:57:29;2.85;;;1.40;;
35188;SDS011;21762;54.480;18.556;2023-04-25T09:59:58;2.47;;;0.80;;
35188;SDS011;21762;54.480;18.556;2023-04-25T10:02:40;6.90;;;1.70;;
35188;SDS011;21762;54.480;18.556;2023-04-25T10:05:21;7.03;;;1.80;;
35188;SDS011;21762;54.480;18.556;2023-04-25T10:07:55;5.40;;;1.70;;
35188;SDS011;21762;54.480;18.556;2023-04-25T10:10:25;4.38;;;2.22;;
35188;SDS011;21762;54.480;18.556;2023-04-25T10:12:56;3.10;;;2.08;;
35188;SDS011;21762;54.480;18.556;2023-04-25T10:15:26;5.13;;;1.98;;
35188;SDS011;21762;54.480;18.556;2023-04-25T10:17:56;2.63;;;1.98;;
35188;SDS011;21762;54.480;18.556;2023-04-25T10:20:26;6.03;;;2.00;;
35188;SDS011;21762;54.480;18.556;2023-04-25T10:22:57;5.50;;;1.40;;
35188;SDS011;21762;54.480;18.556;2023-04-25T10:25:30;2.50;;;1.48;;
35188;SDS011;21762;54.480;18.556;2023-04-25T10:28:00;3.05;;;1.05;;
35188;SDS011;21762;54.480;18.556;2023-04-25T10:30:32;4.05;;;1.33;;
35188;SDS011;21762;54.480;18.556;2023-04-25T10:33:01;3.33;;;1.13;;
35188;SDS011;21762;54.480;18.556;2023-04-25T10:35:30;1.67;;;1.00;;
35188;SDS011;21762;54.480;18.556;2023-04-25T10:38:02;3.90;;;1.20;;
35188;SDS011;21762;54.480;18.556;2023-04-25T10:40:32;1.95;;;1.08;;
35188;SDS011;21762;54.480;18.556;2023-04-25T10:46:17;1.83;;;1.05;;
35188;SDS011;21762;54.480;18.556;2023-04-25T10:48:47;2.72;;;1.35;;
35188;SDS011;21762;54.480;18.556;2023-04-25T10:51:19;4.93;;;1.63;;
35188;SDS011;21762;54.480;18.556;2023-04-25T10:54:00;1.73;;;1.30;;
35188;SDS011;21762;54.480;18.556;2023-04-25T10:56:31;4.63;;;2.63;;
35188;SDS011;21762;54.480;18.556;2023-04-25T10:59:07;2.30;;;1.50;;
35188;SDS011;21762;54.480;18.556;2023-04-25T11:01:38;3.20;;;1.88;;
35188;SDS011;21762;54.480;18.556;2023-04-25T11:04:19;4.38;;;1.63;;
35188;SDS011;21762;54.480;18.556;2023-04-25T11:06:53;2.63;;;1.15;;
35188;SDS011;21762;54.480;18.556;2023-04-25T11:09:33;3.13;;;1.25;;
35188;SDS011;21762;54.480;18.556;2023-04-25T11:12:03;2.00;;;1.50;;
35188;SDS011;21762;54.480;18.556;2023-04-25T11:14:33;6.10;;;1.85;;
35188;SDS011;21762;54.480;18.556;2023-04-25T11:17:02;3.53;;;1.25;;
35188;SDS011;21762;54.480;18.556;2023-04-25T11:19:31;2.03;;;1.20;;
35188;SDS011;21762;54.480;18.556;2023-04-25T11:22:01;4.97;;;1.35;;
35188;SDS011;21762;54.480;18.556;2023-04-25T11:24:31;3.30;;;1.40;;
35188;SDS011;21762;54.480;18.556;2023-04-25T11:27:03;3.33;;;1.42;;
35188;SDS011;21762;54.480;18.556;2023-04-25T11:29:34;11.82;;;2.65;;
35188;SDS011;21762;54.480;18.556;2023-04-25T11:32:04;3.60;;;2.83;;
35188;SDS011;21762;54.480;18.556;2023-04-25T11:34:33;5.50;;;2.85;;
35188;SDS011;21762;54.480;18.556;2023-04-25T11:37:03;4.13;;;3.00;;
35188;SDS011;21762;54.480;18.556;2023-04-25T11:39:34;5.00;;;2.85;;
35188;SDS011;21762;54.480;18.556;2023-04-25T11:42:04;6.50;;;3.13;;
35188;SDS011;21762;54.480;18.556;2023-04-25T11:44:34;5.75;;;3.30;;
35188;SDS011;21762;54.480;18.556;2023-04-25T11:47:03;3.25;;;2.40;;
35188;SDS011;21762;54.480;18.556;2023-04-25T11:49:33;4.68;;;3.40;;
35188;SDS011;21762;54.480;18.556;2023-04-25T11:52:05;5.00;;;3.40;;
35188;SDS011;21762;54.480;18.556;2023-04-25T11:54:37;4.95;;;3.33;;
35188;SDS011;21762;54.480;18.556;2023-04-25T11:57:07;4.05;;;3.10;;
35188;SDS011;21762;54.480;18.556;2023-04-25T11:59:36;5.00;;;3.28;;
35188;SDS011;21762;54.480;18.556;2023-04-25T12:02:06;11.50;;;3.85;;
35188;SDS011;21762;54.480;18.556;2023-04-25T12:04:35;5.55;;;3.45;;
35188;SDS011;21762;54.480;18.556;2023-04-25T12:07:05;6.38;;;3.47;;
35188;SDS011;21762;54.480;18.556;2023-04-25T12:09:40;8.15;;;3.72;;
35188;SDS011;21762;54.480;18.556;2023-04-25T12:12:09;7.10;;;3.67;;
35188;SDS011;21762;54.480;18.556;2023-04-25T12:14:39;7.85;;;3.13;;
35188;SDS011;21762;54.480;18.556;2023-04-25T12:17:08;6.72;;;3.78;;
35188;SDS011;21762;54.480;18.556;2023-04-25T12:19:38;7.50;;;4.78;;
35188;SDS011;21762;54.480;18.556;2023-04-25T12:22:18;9.52;;;4.47;;
35188;SDS011;21762;54.480;18.556;2023-04-25T12:24:50;7.45;;;4.10;;
35188;SDS011;21762;54.480;18.556;2023-04-25T12:27:21;6.10;;;4.45;;
35188;SDS011;21762;54.480;18.556;2023-04-25T12:29:50;6.75;;;4.25;;
35188;SDS011;21762;54.480;18.556;2023-04-25T12:32:21;5.85;;;4.47;;
35188;SDS011;21762;54.480;18.556;2023-04-25T12:34:51;5.63;;;4.07;;
35188;SDS011;21762;54.480;18.556;2023-04-25T12:37:20;7.05;;;4.57;;
35188;SDS011;21762;54.480;18.556;2023-04-25T12:39:51;10.45;;;4.78;;
35188;SDS011;21762;54.480;18.556;2023-04-25T12:42:20;4.57;;;4.05;;
35188;SDS011;21762;54.480;18.556;2023-04-25T12:44:50;9.00;;;4.57;;
35188;SDS011;21762;54.480;18.556;2023-04-25T12:47:19;7.68;;;4.63;;
35188;SDS011;21762;54.480;18.556;2023-04-25T12:49:48;8.02;;;5.13;;
35188;SDS011;21762;54.480;18.556;2023-04-25T12:52:18;5.72;;;4.25;;
35188;SDS011;21762;54.480;18.556;2023-04-25T12:54:47;7.22;;;4.80;;
35188;SDS011;21762;54.480;18.556;2023-04-25T12:57:18;6.72;;;4.50;;
35188;SDS011;21762;54.480;18.556;2023-04-25T12:59:48;5.72;;;5.13;;
35188;SDS011;21762;54.480;18.556;2023-04-25T13:02:17;8.88;;;4.45;;
35188;SDS011;21762;54.480;18.556;2023-04-25T13:04:46;8.05;;;4.38;;
35188;SDS011;21762;54.480;18.556;2023-04-25T13:07:15;6.10;;;4.57;;
35188;SDS011;21762;54.480;18.556;2023-04-25T13:09:44;6.72;;;4.82;;
35188;SDS011;21762;54.480;18.556;2023-04-25T13:12:14;7.82;;;4.43;;
35188;SDS011;21762;54.480;18.556;2023-04-25T13:14:45;8.02;;;5.47;;
35188;SDS011;21762;54.480;18.556;2023-04-25T13:17:14;8.03;;;4.20;;
35188;SDS011;21762;54.480;18.556;2023-04-25T13:19:44;5.18;;;3.85;;
35188;SDS011;21762;54.480;18.556;2023-04-25T13:22:14;5.40;;;4.25;;
35188;SDS011;21762;54.480;18.556;2023-04-25T13:24:44;8.80;;;4.93;;
35188;SDS011;21762;54.480;18.556;2023-04-25T13:27:14;6.53;;;4.43;;
35188;SDS011;21762;54.480;18.556;2023-04-25T13:29:45;9.63;;;4.93;;
35188;SDS011;21762;54.480;18.556;2023-04-25T13:32:14;8.10;;;4.65;;
35188;SDS011;21762;54.480;18.556;2023-04-25T13:34:43;7.68;;;4.82;;
35188;SDS011;21762;54.480;18.556;2023-04-25T13:37:13;6.03;;;4.00;;
35188;SDS011;21762;54.480;18.556;2023-04-25T13:39:42;9.93;;;4.97;;
35188;SDS011;21762;54.480;18.556;2023-04-25T13:42:12;6.72;;;4.68;;
35188;SDS011;21762;54.480;18.556;2023-04-25T13:44:41;8.80;;;4.82;;
35188;SDS011;21762;54.480;18.556;2023-04-25T13:47:12;7.82;;;4.10;;
35188;SDS011;21762;54.480;18.556;2023-04-25T13:49:41;8.30;;;4.07;;
35188;SDS011;21762;54.480;18.556;2023-04-25T13:52:10;5.35;;;3.78;;
35188;SDS011;21762;54.480;18.556;2023-04-25T13:54:39;7.78;;;4.57;;
35188;SDS011;21762;54.480;18.556;2023-04-25T13:57:09;9.50;;;4.88;;
35188;SDS011;21762;54.480;18.556;2023-04-25T13:59:38;6.43;;;3.85;;
35188;SDS011;21762;54.480;18.556;2023-04-25T14:02:08;8.45;;;4.65;;
35188;SDS011;21762;54.480;18.556;2023-04-25T14:04:39;8.60;;;4.38;;
35188;SDS011;21762;54.480;18.556;2023-04-25T14:07:08;9.98;;;4.28;;
35188;SDS011;21762;54.480;18.556;2023-04-25T14:09:38;5.13;;;3.63;;
35188;SDS011;21762;54.480;18.556;2023-04-25T14:12:06;7.93;;;4.43;;
35188;SDS011;21762;54.480;18.556;2023-04-25T14:14:35;7.05;;;4.00;;
35188;SDS011;21762;54.480;18.556;2023-04-25T14:17:04;5.32;;;4.03;;
35188;SDS011;21762;54.480;18.556;2023-04-25T14:19:33;6.30;;;4.43;;
35188;SDS011;21762;54.480;18.556;2023-04-25T14:22:04;5.32;;;4.45;;
35188;SDS011;21762;54.480;18.556;2023-04-25T14:24:33;10.32;;;4.95;;
35188;SDS011;21762;54.480;18.556;2023-04-25T14:27:02;6.75;;;4.45;;
35188;SDS011;21762;54.480;18.556;2023-04-25T14:32:03;11.73;;;2.63;;
35188;SDS011;21762;54.480;18.556;2023-04-25T14:34:32;10.48;;;2.63;;
35188;SDS011;21762;54.480;18.556;2023-04-25T14:37:01;10.43;;;2.58;;
35188;SDS011;21762;54.480;18.556;2023-04-25T14:39:32;9.85;;;2.30;;
35188;SDS011;21762;54.480;18.556;2023-04-25T14:42:01;9.48;;;2.70;;
35188;SDS011;21762;54.480;18.556;2023-04-25T14:44:30;11.25;;;2.47;;
35188;SDS011;21762;54.480;18.556;2023-04-25T14:46:59;10.18;;;2.35;;
35188;SDS011;21762;54.480;18.556;2023-04-25T14:49:28;11.20;;;2.83;;
35188;SDS011;21762;54.480;18.556;2023-04-25T14:51:57;12.45;;;3.38;;
35188;SDS011;21762;54.480;18.556;2023-04-25T14:54:27;6.30;;;2.58;;
35188;SDS011;21762;54.480;18.556;2023-04-25T14:56:57;12.15;;;2.80;;
35188;SDS011;21762;54.480;18.556;2023-04-25T14:59:26;11.70;;;2.65;;
35188;SDS011;21762;54.480;18.556;2023-04-25T15:01:55;8.77;;;2.25;;
35188;SDS011;21762;54.480;18.556;2023-04-25T15:04:25;14.25;;;2.95;;
35188;SDS011;21762;54.480;18.556;2023-04-25T15:06:56;13.38;;;3.17;;
35188;SDS011;21762;54.480;18.556;2023-04-25T15:09:26;19.23;;;5.45;;
35188;SDS011;21762;54.480;18.556;2023-04-25T15:11:56;9.43;;;3.20;;
35188;SDS011;21762;54.480;18.556;2023-04-25T15:14:26;10.13;;;2.85;;
35188;SDS011;21762;54.480;18.556;2023-04-25T15:16:55;15.73;;;3.20;;